createdAt,value
2022-09-04T00:01:08.483Z,101112.03
2022-09-04T00:04:18.808Z,101112.13
2022-09-04T00:07:05.815Z,101066.56
2022-09-04T00:09:49.629Z,101106.06
2022-09-04T00:12:33.401Z,101099.13
2022-09-04T00:15:19.714Z,101064.31
2022-09-04T00:17:58.174Z,101120.44
2022-09-04T00:20:40.717Z,101118.72
2022-09-04T00:23:34.143Z,101056.50
2022-09-04T00:26:25.498Z,101083.84
2022-09-04T00:29:04.065Z,101072.44
2022-09-04T00:32:12.997Z,101118.94
2022-09-04T00:35:10.310Z,101123.50
2022-09-04T00:38:11.218Z,101120.88
2022-09-04T00:40:47.304Z,101119.22
2022-09-04T00:43:37.083Z,101123.66
2022-09-04T00:46:21.989Z,101121.25
2022-09-04T00:49:11.603Z,101131.88
2022-09-04T00:51:56.769Z,101071.31
2022-09-04T00:54:40.134Z,101124.03
2022-09-04T00:57:33.993Z,101130.19
2022-09-04T01:00:18.573Z,101107.44
2022-09-04T01:03:08.049Z,101125.84
2022-09-04T01:05:47.113Z,101124.13
2022-09-04T01:08:23.617Z,101131.34
2022-09-04T01:11:09.820Z,101128.66
2022-09-04T01:14:10.771Z,101132.25
2022-09-04T01:17:04.566Z,101091.91
2022-09-04T01:20:13.349Z,101121.75
2022-09-04T01:23:12.642Z,101132.53
2022-09-04T01:26:21.869Z,101128.16
2022-09-04T01:29:13.147Z,101130.13
2022-09-04T01:31:52.807Z,101123.06
2022-09-04T01:34:59.491Z,101128.38
2022-09-04T01:37:57.941Z,101074.97
2022-09-04T01:40:52.854Z,101124.06
2022-09-04T01:43:24.424Z,101125.06
2022-09-04T01:46:15.225Z,101134.72
2022-09-04T01:49:24.685Z,101133.03
2022-09-04T01:52:07.265Z,101122.50
2022-09-04T01:55:24.006Z,101131.34
2022-09-04T01:58:17.738Z,101121.72
2022-09-04T02:01:01.753Z,101085.91
2022-09-04T02:03:51.096Z,101127.06
2022-09-04T02:06:33.327Z,101138.63
2022-09-04T02:09:26.152Z,101128.97
2022-09-04T02:12:12.078Z,101142.25
2022-09-04T02:15:06.904Z,101140.50
2022-09-04T02:17:47.346Z,101148.53
2022-09-04T02:20:25.366Z,101093.22
2022-09-04T02:23:11.728Z,101092.38
2022-09-04T02:26:02.181Z,101142.44
2022-09-04T02:32:37.931Z,101141.66
2022-09-04T02:35:20.206Z,101140.94
2022-09-04T02:38:16.950Z,101141.00
2022-09-04T02:41:03.633Z,101105.94
2022-09-04T02:43:56.280Z,101153.28
2022-09-04T02:46:47.378Z,101150.81
2022-09-04T02:49:43.805Z,101148.16
2022-09-04T02:52:52.619Z,101158.91
2022-09-04T02:55:52.268Z,101141.25
2022-09-04T02:58:39.648Z,101158.09
2022-09-04T03:01:22.251Z,101153.72
2022-09-04T03:04:05.250Z,101111.75
2022-09-04T03:06:48.406Z,101154.81
2022-09-04T03:09:56.047Z,101161.75
2022-09-04T03:12:30.421Z,101159.13
2022-09-04T03:15:36.343Z,101131.22
2022-09-04T03:18:22.708Z,101157.81
2022-09-04T03:21:01.119Z,101114.81
2022-09-04T03:24:00.770Z,101150.88
2022-09-04T03:26:44.294Z,101171.16
2022-09-04T03:29:16.178Z,101171.03
2022-09-04T03:31:59.961Z,101174.66
2022-09-04T03:34:50.529Z,101170.22
2022-09-04T03:37:48.226Z,101184.47
2022-09-04T03:40:28.417Z,101185.38
2022-09-04T03:43:12.744Z,101181.94
2022-09-04T03:46:11.328Z,101136.31
2022-09-04T03:49:07.831Z,101190.84
2022-09-04T03:51:39.313Z,101190.91
2022-09-04T03:54:44.279Z,101194.44
2022-09-04T03:57:54.198Z,101198.91
2022-09-04T04:00:25.651Z,101164.63
2022-09-04T04:03:28.308Z,101185.78
2022-09-04T04:06:12.983Z,101132.16
2022-09-04T04:09:16.327Z,101196.38
2022-09-04T04:12:03.941Z,101187.66
2022-09-04T04:14:46.091Z,101194.66
2022-09-04T04:17:23.921Z,101175.38
2022-09-04T04:20:40.148Z,101201.78
2022-09-04T04:23:17.756Z,101208.06
2022-09-04T04:26:21.549Z,101211.63
2022-09-04T04:29:11.813Z,101218.75
2022-09-04T04:32:11.483Z,101222.38
2022-09-04T04:35:05.636Z,101221.53
2022-09-04T04:38:00.367Z,101219.81
2022-09-04T04:41:00.597Z,101226.06
2022-09-04T04:43:50.171Z,101237.59
2022-09-04T04:46:44.788Z,101225.19
2022-09-04T04:49:34.157Z,101207.66
2022-09-04T04:52:30.347Z,101235.75
2022-09-04T04:55:35.103Z,101226.91
2022-09-04T04:58:07.877Z,101236.56
2022-09-04T05:01:05.149Z,101244.53
2022-09-04T05:03:53.939Z,101246.25
2022-09-04T05:06:30.810Z,101238.28
2022-09-04T05:09:14.758Z,101225.94
2022-09-04T05:12:03.561Z,101232.91
2022-09-04T05:14:48.604Z,101209.09
2022-09-04T05:17:37.623Z,101246.88
2022-09-04T05:20:42.388Z,101258.25
2022-09-04T05:23:37.146Z,101253.78
2022-09-04T05:26:23.654Z,101237.13
2022-09-04T05:29:06.667Z,101276.53
2022-09-04T05:31:46.925Z,101281.69
2022-09-04T05:34:49.056Z,101283.28
2022-09-04T05:37:47.036Z,101277.09
2022-09-04T05:40:29.627Z,101280.47
2022-09-04T05:43:32.159Z,101282.47
2022-09-04T05:46:15.932Z,101275.97
2022-09-04T05:49:20.021Z,101281.81
2022-09-04T05:52:10.230Z,101279.03
2022-09-04T05:54:54.143Z,101277.16
2022-09-04T05:57:56.545Z,101278.84
2022-09-04T06:00:46.492Z,101261.69
2022-09-04T06:03:49.490Z,101292.50
2022-09-04T06:06:26.226Z,101250.41
2022-09-04T06:09:23.927Z,101298.06
2022-09-04T06:12:23.608Z,101294.84
2022-09-04T06:15:11.577Z,101296.03
2022-09-04T06:17:54.974Z,101296.22
2022-09-04T06:20:39.734Z,101290.19
2022-09-04T06:23:34.148Z,101305.41
2022-09-04T06:26:17.850Z,101307.16
2022-09-04T06:29:07.047Z,101297.53
2022-09-04T06:32:04.312Z,101312.56
2022-09-04T06:34:58.828Z,101288.91
2022-09-04T06:38:15.890Z,101313.34
2022-09-04T06:41:08.558Z,101303.44
2022-09-04T06:43:48.708Z,101296.22
2022-09-04T06:46:38.811Z,101308.19
2022-09-04T06:49:36.114Z,101301.53
2022-09-04T06:52:19.859Z,101300.22
2022-09-04T06:55:00.543Z,101312.97
2022-09-04T06:58:02.819Z,101318.00
2022-09-04T07:00:44.795Z,101265.88
2022-09-04T07:04:16.209Z,101323.28
2022-09-04T07:07:18.216Z,101300.94
2022-09-04T07:10:01.066Z,101328.56
2022-09-04T07:13:08.201Z,101322.75
2022-09-04T07:15:59.018Z,101331.34
2022-09-04T07:18:50.754Z,101339.75
2022-09-04T07:21:40.805Z,101350.69
2022-09-04T07:24:57.066Z,101302.69
2022-09-04T07:28:01.442Z,101352.31
2022-09-04T07:30:50.069Z,101339.25
2022-09-04T07:33:33.914Z,101307.28
2022-09-04T07:36:20.747Z,101348.50
2022-09-04T07:38:55.360Z,101332.69
2022-09-04T07:41:48.460Z,101347.78
2022-09-04T07:44:29.591Z,101345.75
2022-09-04T07:47:12.498Z,101355.13
2022-09-04T07:49:57.984Z,101343.28
2022-09-04T07:53:11.378Z,101346.44
2022-09-04T07:55:50.766Z,101354.38
2022-09-04T07:58:44.869Z,101360.66
2022-09-04T08:01:40.655Z,101348.56
2022-09-04T08:04:22.591Z,101370.16
2022-09-04T08:07:00.567Z,101323.97
2022-09-04T08:09:47.026Z,101354.53
2022-09-04T08:12:42.688Z,101370.06
2022-09-04T08:15:22.460Z,101376.63
2022-09-04T08:18:03.923Z,101392.66
2022-09-04T08:20:53.082Z,101384.81
2022-09-04T08:24:02.594Z,101375.63
2022-09-04T08:27:01.013Z,101367.22
2022-09-04T08:29:41.667Z,101384.25
2022-09-04T08:32:42.841Z,101381.94
2022-09-04T08:35:26.726Z,101382.66
2022-09-04T08:38:21.141Z,101391.50
2022-09-04T08:41:36.115Z,101379.81
2022-09-04T08:44:10.410Z,101395.44
2022-09-04T08:47:10.310Z,101406.41
2022-09-04T08:50:08.352Z,101373.28
2022-09-04T08:52:43.918Z,101401.75
2022-09-04T08:55:33.152Z,101389.44
2022-09-04T08:58:28.741Z,101375.41
2022-09-04T09:01:00.757Z,101400.13
2022-09-04T09:03:37.926Z,101402.81
2022-09-04T09:06:37.800Z,101401.66
2022-09-04T09:09:27.725Z,101407.91
2022-09-04T09:12:41.428Z,101401.34
2022-09-04T09:15:25.548Z,101387.75
2022-09-04T09:18:33.738Z,101372.47
2022-09-04T09:21:11.125Z,101396.16
2022-09-04T09:24:27.383Z,101404.94
2022-09-04T09:27:14.786Z,101405.56
2022-09-04T09:30:05.292Z,101403.72
2022-09-04T09:32:55.448Z,101408.75
2022-09-04T09:36:04.758Z,101399.75
2022-09-04T09:39:22.882Z,101409.16
2022-09-04T09:42:29.923Z,101406.34
2022-09-04T09:45:11.195Z,101410.22
2022-09-04T09:48:11.403Z,101405.88
2022-09-04T09:51:23.192Z,101407.09
2022-09-04T09:54:43.317Z,101410.13
2022-09-04T09:58:01.742Z,101405.06
2022-09-04T10:00:52.438Z,101391.91
2022-09-04T10:03:39.011Z,101400.34
2022-09-04T10:06:13.453Z,101377.31
2022-09-04T10:09:07.098Z,101364.88
2022-09-04T10:11:43.475Z,101393.72
2022-09-04T10:14:23.194Z,101394.19
2022-09-04T10:17:17.379Z,101390.00
2022-09-04T10:20:11.753Z,101392.28
2022-09-04T10:22:59.474Z,101386.88
2022-09-04T10:26:19.838Z,101388.19
2022-09-04T10:29:11.874Z,101382.56
2022-09-04T10:31:53.535Z,101390.50
2022-09-04T10:34:41.036Z,101393.28
2022-09-04T10:37:33.415Z,101393.63
2022-09-04T10:40:45.982Z,101377.19
2022-09-04T10:43:38.813Z,101384.03
2022-09-04T10:46:23.417Z,101396.78
2022-09-04T10:49:06.702Z,101391.50
2022-09-04T10:51:44.294Z,101397.69
2022-09-04T10:54:43.704Z,101399.34
2022-09-04T10:57:45.400Z,101395.31
2022-09-04T11:00:35.374Z,101388.81
2022-09-04T11:03:25.597Z,101396.78
2022-09-04T11:06:29.169Z,101385.59
2022-09-04T11:09:18.319Z,101391.47
2022-09-04T11:12:30.169Z,101389.84
2022-09-04T11:15:33.447Z,101393.09
2022-09-04T11:18:38.051Z,101377.97
2022-09-04T11:21:47.191Z,101389.91
2022-09-04T11:24:38.315Z,101391.97
2022-09-04T11:27:42.650Z,101386.00
2022-09-04T11:30:20.309Z,101381.84
2022-09-04T11:33:33.465Z,101379.34
2022-09-04T11:36:24.366Z,101364.56
2022-09-04T11:39:19.866Z,101368.88
2022-09-04T11:42:27.662Z,101376.41
2022-09-04T11:45:36.260Z,101377.69
2022-09-04T11:48:07.746Z,101381.72
2022-09-04T11:50:59.313Z,101368.97
2022-09-04T11:54:00.374Z,101370.47
2022-09-04T11:57:09.455Z,101385.13
2022-09-04T12:00:07.969Z,101381.69
2022-09-04T12:02:48.504Z,101384.84
2022-09-04T12:06:03.663Z,101383.56
2022-09-04T12:09:18.277Z,101365.75
2022-09-04T12:12:09.058Z,101374.56
2022-09-04T12:15:07.472Z,101374.72
2022-09-04T12:18:23.257Z,101376.47
2022-09-04T12:21:35.885Z,101367.16
2022-09-04T12:24:22.825Z,101354.22
2022-09-04T12:27:37.007Z,101366.56
2022-09-04T12:30:19.225Z,101367.47
2022-09-04T12:33:26.642Z,101362.81
2022-09-04T12:36:07.081Z,101368.41
2022-09-04T12:38:48.292Z,101360.94
2022-09-04T12:41:31.728Z,101332.50
2022-09-04T12:44:36.986Z,101368.72
2022-09-04T12:47:21.884Z,101342.66
2022-09-04T12:50:21.963Z,101358.91
2022-09-04T12:53:08.590Z,101360.19
2022-09-04T12:56:03.174Z,101364.06
2022-09-04T12:58:55.134Z,101353.78
2022-09-04T13:01:59.235Z,101365.09
2022-09-04T13:04:36.493Z,101377.69
2022-09-04T13:07:24.361Z,101374.13
2022-09-04T13:10:19.905Z,101363.72
2022-09-04T13:13:56.664Z,101375.13
2022-09-04T13:16:59.818Z,101357.63
2022-09-04T13:20:15.443Z,101362.59
2022-09-04T13:23:15.830Z,101359.47
2022-09-04T13:26:29.623Z,101354.47
2022-09-04T13:29:19.573Z,101320.84
2022-09-04T13:32:10.232Z,101384.47
2022-09-04T13:35:15.929Z,101375.66
2022-09-04T13:37:55.154Z,101384.81
2022-09-04T13:41:04.854Z,101374.28
2022-09-04T13:44:07.985Z,101373.16
2022-09-04T13:46:53.411Z,101371.06
2022-09-04T13:49:35.842Z,101365.38
2022-09-04T13:52:14.026Z,101344.78
2022-09-04T13:54:54.738Z,101366.72
2022-09-04T13:57:35.922Z,101335.56
2022-09-04T14:00:08.051Z,101376.06
2022-09-04T14:02:41.821Z,101376.47
2022-09-04T14:05:18.629Z,101327.06
2022-09-04T14:07:59.187Z,101378.94
2022-09-04T14:11:01.371Z,101390.03
2022-09-04T14:14:11.356Z,101383.31
2022-09-04T14:16:44.259Z,101360.06
2022-09-04T14:19:40.575Z,101377.44
2022-09-04T14:22:26.972Z,101380.41
2022-09-04T14:25:17.177Z,101384.81
2022-09-04T14:28:05.562Z,101368.41
2022-09-04T14:30:59.434Z,101373.28
2022-09-04T14:33:51.140Z,101392.00
2022-09-04T14:36:35.522Z,101389.63
2022-09-04T14:39:18.921Z,101383.31
2022-09-04T14:42:16.279Z,101386.16
2022-09-04T14:45:23.284Z,101390.97
2022-09-04T14:47:59.899Z,101352.19
2022-09-04T14:50:43.542Z,101372.06
2022-09-04T14:53:23.097Z,101385.00
2022-09-04T14:56:09.788Z,101386.28
2022-09-04T14:58:57.896Z,101382.28
2022-09-04T15:01:32.374Z,101388.00
2022-09-04T15:04:24.917Z,101350.53
2022-09-04T15:07:11.426Z,101381.97
2022-09-04T15:09:48.243Z,101338.94
2022-09-04T15:12:30.726Z,101377.78
2022-09-04T15:15:15.947Z,101379.19
2022-09-04T15:17:54.064Z,101377.47
2022-09-04T15:20:31.555Z,101381.44
2022-09-04T15:23:22.385Z,101385.66
2022-09-04T15:26:07.188Z,101373.09
2022-09-04T15:28:49.682Z,101385.06
2022-09-04T15:31:39.944Z,101348.38
2022-09-04T15:34:20.681Z,101395.84
2022-09-04T15:36:52.713Z,101404.72
2022-09-04T15:39:51.165Z,101393.28
2022-09-04T15:42:59.028Z,101397.00
2022-09-04T15:45:36.300Z,101406.72
2022-09-04T15:48:40.447Z,101391.41
2022-09-04T15:51:41.321Z,101388.81
2022-09-04T15:54:43.649Z,101394.38
2022-09-04T15:57:46.924Z,101392.22
2022-09-04T16:00:24.601Z,101396.31
2022-09-04T16:03:20.287Z,101387.50
2022-09-04T16:06:01.225Z,101389.03
2022-09-04T16:08:45.035Z,101384.34
2022-09-04T16:11:28.933Z,101383.16
2022-09-04T16:14:04.858Z,101385.50
2022-09-04T16:16:44.474Z,101390.50
2022-09-04T16:19:29.102Z,101395.50
2022-09-04T16:22:25.653Z,101399.63
2022-09-04T16:25:06.964Z,101396.56
2022-09-04T16:27:48.967Z,101387.72
2022-09-04T16:31:03.250Z,101398.03
2022-09-04T16:33:47.740Z,101395.94
2022-09-04T16:36:44.078Z,101392.88
2022-09-04T16:39:40.267Z,101395.25
2022-09-04T16:42:29.418Z,101388.81
2022-09-04T16:45:25.842Z,101392.81
2022-09-04T16:48:11.288Z,101398.66
2022-09-04T16:51:23.516Z,101377.59
2022-09-04T16:54:16.520Z,101398.91
2022-09-04T16:57:12.084Z,101400.28
2022-09-04T16:59:53.694Z,101400.97
2022-09-04T17:02:39.362Z,101398.00
2022-09-04T17:05:50.937Z,101407.00
2022-09-04T17:08:32.399Z,101390.28
2022-09-04T17:11:14.683Z,101413.53
2022-09-04T17:14:13.083Z,101409.56
2022-09-04T17:17:21.531Z,101398.28
2022-09-04T17:20:02.090Z,101417.00
2022-09-04T17:28:58.184Z,101415.81
2022-09-04T17:29:13.600Z,101421.81
2022-09-04T17:29:17.546Z,101404.59
2022-09-04T17:32:00.111Z,101395.66
2022-09-04T17:40:41.061Z,101417.16
2022-09-04T17:40:53.296Z,101416.94
2022-09-04T17:41:54.879Z,101422.00
2022-09-04T17:44:46.087Z,101415.66
2022-09-04T17:47:47.025Z,101430.25
2022-09-04T17:50:24.211Z,101428.19
2022-09-04T17:53:01.647Z,101437.53
2022-09-04T17:55:39.017Z,101432.75
2022-09-04T17:58:26.199Z,101440.34
2022-09-04T18:01:15.076Z,101431.06
2022-09-04T18:04:19.863Z,101403.59
2022-09-04T18:07:21.354Z,101418.97
2022-09-04T18:10:19.181Z,101444.81
2022-09-04T18:13:09.106Z,101449.84
2022-09-04T18:16:56.293Z,101449.50
2022-09-04T18:19:57.280Z,101446.75
2022-09-04T18:22:50.523Z,101454.25
2022-09-04T18:25:31.622Z,101455.88
2022-09-04T18:28:14.045Z,101453.66
2022-09-04T18:36:04.551Z,101419.34
2022-09-04T18:37:24.927Z,101441.91
2022-09-04T18:37:26.723Z,101454.44
2022-09-04T18:39:41.275Z,101436.28
2022-09-04T18:49:55.443Z,101468.94
2022-09-04T18:50:38.071Z,101464.72
2022-09-04T18:50:45.044Z,101460.66
2022-09-04T18:51:34.880Z,101474.00
2022-09-04T18:54:18.258Z,101476.78
2022-09-04T18:56:55.455Z,101466.59
2022-09-04T18:59:33.168Z,101468.66
2022-09-04T19:02:18.647Z,101478.69
2022-09-04T19:04:56.263Z,101483.28
2022-09-04T19:07:42.798Z,101480.91
2022-09-04T19:10:20.176Z,101466.53
2022-09-04T19:12:52.221Z,101457.88
2022-09-04T19:15:37.099Z,101491.34
2022-09-04T19:18:27.683Z,101489.66
2022-09-04T19:21:15.238Z,101497.97
2022-09-04T19:24:00.991Z,101487.63
2022-09-04T19:26:40.465Z,101467.91
2022-09-04T19:29:48.743Z,101494.16
2022-09-04T19:32:37.645Z,101492.84
2022-09-04T19:35:25.210Z,101486.78
2022-09-04T19:43:30.454Z,101449.34
2022-09-04T19:45:57.587Z,101477.00
2022-09-04T19:46:00.910Z,101449.97
2022-09-04T19:47:29.611Z,101497.53
2022-09-04T19:53:21.576Z,101504.84
2022-09-04T19:53:48.695Z,101490.06
2022-09-04T19:56:31.050Z,101500.09
2022-09-04T19:59:11.388Z,101477.41
2022-09-04T20:01:50.053Z,101503.00
2022-09-04T20:04:33.928Z,101461.06
2022-09-04T20:07:25.893Z,101497.22
2022-09-04T20:10:00.255Z,101449.28
2022-09-04T20:12:48.932Z,101516.28
2022-09-04T20:15:31.987Z,101456.84
2022-09-04T20:18:19.655Z,101483.28
2022-09-04T20:21:25.827Z,101469.78
2022-09-04T20:24:05.712Z,101518.97
2022-09-04T20:26:51.936Z,101473.53
2022-09-04T20:29:36.105Z,101514.22
2022-09-04T20:32:46.820Z,101523.81
2022-09-04T20:35:48.264Z,101524.19
2022-09-04T20:38:30.441Z,101536.84
2022-09-04T20:41:21.135Z,101480.66
2022-09-04T20:44:06.871Z,101528.25
2022-09-04T20:51:19.626Z,101533.72
2022-09-04T20:52:56.054Z,101534.66
2022-09-04T20:53:09.613Z,101529.53
2022-09-04T20:57:18.413Z,101530.56
2022-09-04T21:03:24.716Z,101509.78
2022-09-04T21:03:28.058Z,101540.75
2022-09-04T21:06:18.551Z,101497.00
2022-09-04T21:09:32.181Z,101544.66
2022-09-04T21:12:24.783Z,101536.25
2022-09-04T21:15:25.545Z,101548.53
2022-09-04T21:18:31.280Z,101548.59
2022-09-04T21:21:30.296Z,101540.94
2022-09-04T21:24:35.875Z,101549.88
2022-09-04T21:27:28.389Z,101562.59
2022-09-04T21:30:11.853Z,101558.63
2022-09-04T21:33:01.663Z,101537.47
2022-09-04T21:36:00.292Z,101538.56
2022-09-04T21:39:19.620Z,101523.81
2022-09-04T21:42:20.202Z,101571.25
2022-09-04T21:45:08.828Z,101557.50
2022-09-04T21:48:06.507Z,101573.34
2022-09-04T21:51:16.918Z,101587.75
2022-09-04T21:57:08.928Z,101535.22
2022-09-04T22:02:30.922Z,101594.28
2022-09-04T22:02:44.807Z,101585.44
2022-09-04T22:03:31.756Z,101587.22
2022-09-04T22:06:09.305Z,101589.84
2022-09-04T22:13:29.102Z,101572.94
2022-09-04T22:13:43.726Z,101589.06
2022-09-04T22:15:35.946Z,101544.56
2022-09-04T22:18:09.453Z,101591.97
2022-09-04T22:20:52.672Z,101582.25
2022-09-04T22:23:51.417Z,101563.16
2022-09-04T22:26:44.274Z,101538.81
2022-09-04T22:29:40.089Z,101577.59
2022-09-04T22:32:49.038Z,101581.97
2022-09-04T22:35:45.099Z,101587.56
2022-09-04T22:38:47.400Z,101590.41
2022-09-04T22:41:28.023Z,101577.25
2022-09-04T22:44:18.585Z,101579.88
2022-09-04T22:47:26.610Z,101578.41
2022-09-04T22:50:49.799Z,101600.66
2022-09-04T22:53:50.328Z,101593.72
2022-09-04T22:56:49.328Z,101583.28
2022-09-04T22:59:39.174Z,101593.91
2022-09-04T23:03:09.641Z,101591.34
2022-09-04T23:06:27.451Z,101587.09
2022-09-04T23:13:57.504Z,101566.25
2022-09-04T23:13:59.441Z,101590.66
2022-09-04T23:15:49.737Z,101590.72
2022-09-04T23:20:00.632Z,101588.81
2022-09-04T23:26:37.153Z,101578.00
2022-09-04T23:26:43.387Z,101580.44
2022-09-04T23:28:02.740Z,101577.75
2022-09-04T23:31:29.363Z,101578.63
2022-09-04T23:34:25.320Z,101575.84
2022-09-04T23:36:56.598Z,101582.97
2022-09-04T23:40:10.270Z,101586.47
2022-09-04T23:43:07.532Z,101582.78
2022-09-04T23:46:18.309Z,101564.09
2022-09-04T23:49:24.533Z,101573.63
2022-09-04T23:52:22.072Z,101566.50
2022-09-04T23:55:24.875Z,101570.91
2022-09-04T23:58:22.299Z,101570.13
